createdAt,value
2023-05-23T06:46:25.719Z,29.01
2023-05-23T06:49:02.646Z,26.72
2023-05-23T06:51:40.915Z,26.51
2023-05-23T06:54:09.804Z,26.34
2023-05-23T06:56:37.942Z,26.48
2023-05-23T06:59:05.242Z,26.26
2023-05-23T07:01:34.306Z,25.56
2023-05-23T07:04:01.399Z,25.39
2023-05-23T07:06:28.632Z,25.52
2023-05-23T07:08:55.595Z,25.19
2023-05-23T07:11:22.644Z,25.12
2023-05-23T07:13:53.863Z,25.13
2023-05-23T07:16:26.976Z,24.63
2023-05-23T07:19:02.589Z,24.23
2023-05-23T07:21:30.665Z,23.95
2023-05-23T07:23:57.433Z,23.96
2023-05-23T07:26:24.672Z,24.21
2023-05-23T07:28:54.795Z,24.31
2023-05-23T07:31:22.680Z,24.41
2023-05-23T07:33:55.719Z,24.63
2023-05-23T07:36:27.184Z,25.14
2023-05-23T07:38:54.332Z,25.25
2023-05-23T07:41:21.699Z,25.47
2023-05-23T07:43:48.971Z,25.46
2023-05-23T07:46:16.796Z,25.21
2023-05-23T07:48:44.610Z,25.22
2023-05-23T07:51:12.660Z,25.46
2023-05-23T07:53:40.300Z,25.61
2023-05-23T07:56:11.140Z,25.63
2023-05-23T07:58:39.321Z,25.50
2023-05-23T08:01:06.368Z,25.31
2023-05-23T08:03:52.006Z,24.93
2023-05-23T08:06:23.901Z,24.69
2023-05-23T08:08:51.355Z,24.28
2023-05-23T08:11:18.124Z,23.85
2023-05-23T08:13:49.048Z,23.17
2023-05-23T08:16:48.807Z,22.49
2023-05-23T08:19:19.302Z,22.17
2023-05-23T08:21:46.737Z,21.87
2023-05-23T08:24:14.911Z,21.45
2023-05-23T08:26:43.052Z,20.97
2023-05-23T08:29:11.362Z,20.53
2023-05-23T08:31:38.526Z,20.19
2023-05-23T08:34:06.585Z,19.90
2023-05-23T08:36:36.087Z,19.77
2023-05-23T08:39:03.442Z,19.50
2023-05-23T08:41:35.322Z,19.37
2023-05-23T08:44:04.635Z,19.17
2023-05-23T08:46:39.366Z,19.08
2023-05-23T08:49:06.478Z,18.94
2023-05-23T08:51:33.604Z,18.81
2023-05-23T08:54:01.943Z,18.87
2023-05-23T08:56:29.766Z,18.93
2023-05-23T08:58:57.860Z,19.02
2023-05-23T09:01:25.036Z,18.67
2023-05-23T09:03:52.879Z,18.55
2023-05-23T09:06:34.271Z,18.37
2023-05-23T09:09:01.138Z,18.23
2023-05-23T09:11:28.531Z,18.45
2023-05-23T09:13:57.114Z,18.28
2023-05-23T09:16:23.872Z,18.14
2023-05-23T09:18:56.105Z,18.39
2023-05-23T09:21:23.881Z,18.37
2023-05-23T09:23:56.095Z,18.36
2023-05-23T09:26:22.980Z,18.74
2023-05-23T09:28:50.214Z,18.51
2023-05-23T09:31:16.989Z,18.49
2023-05-23T09:33:49.420Z,18.58
2023-05-23T09:36:17.924Z,18.45
2023-05-23T09:38:45.843Z,18.10
2023-05-23T09:41:13.248Z,18.41
2023-05-23T09:43:49.408Z,18.64
2023-05-23T09:46:16.175Z,18.73
2023-05-23T09:48:51.653Z,18.45
2023-05-23T09:51:20.726Z,18.25
2023-05-23T09:53:47.813Z,18.37
2023-05-23T09:56:16.315Z,18.51
2023-05-23T09:58:52.256Z,17.72
2023-05-23T10:01:18.940Z,17.65
2023-05-23T10:03:50.413Z,17.78
2023-05-23T10:06:32.073Z,17.53
2023-05-23T10:09:03.496Z,17.51
2023-05-23T10:11:36.052Z,17.82
2023-05-23T10:14:07.109Z,18.94
2023-05-23T10:16:39.321Z,19.68
2023-05-23T10:19:09.635Z,20.07
2023-05-23T10:21:40.464Z,20.67
2023-05-23T10:24:07.341Z,20.79
2023-05-23T10:26:34.086Z,20.89
2023-05-23T10:29:01.131Z,20.55
2023-05-23T10:31:28.590Z,20.53
2023-05-23T10:34:19.193Z,20.76
2023-05-23T10:36:55.819Z,21.10
2023-05-23T10:39:43.823Z,21.53
2023-05-23T10:42:17.563Z,21.63
2023-05-23T10:44:44.200Z,22.33
2023-05-23T10:47:12.343Z,22.84
2023-05-23T10:49:43.134Z,23.03
2023-05-23T10:52:12.769Z,23.10
2023-05-23T10:54:43.885Z,23.19
2023-05-23T10:57:12.208Z,23.07
2023-05-23T10:59:39.333Z,23.11
2023-05-23T11:02:13.936Z,23.04
2023-05-23T11:04:40.736Z,23.26
2023-05-23T11:07:37.676Z,23.04
2023-05-23T11:10:09.136Z,23.06
2023-05-23T11:12:43.206Z,22.94
2023-05-23T11:15:16.186Z,22.89
2023-05-23T11:17:53.756Z,23.40
2023-05-23T11:20:27.853Z,23.86
2023-05-23T11:23:07.014Z,24.51
2023-05-23T11:25:44.472Z,25.39
2023-05-23T11:28:12.106Z,26.11
2023-05-23T11:30:39.408Z,26.55
2023-05-23T11:33:15.762Z,27.16
2023-05-23T11:35:47.231Z,27.41
2023-05-23T11:38:14.643Z,27.41
2023-05-23T11:40:42.903Z,27.39
2023-05-23T11:43:14.946Z,27.26
2023-05-23T11:45:42.181Z,27.32
2023-05-23T11:48:09.289Z,27.00
2023-05-23T11:51:00.502Z,26.92
2023-05-23T11:53:27.316Z,27.32
2023-05-23T11:55:55.329Z,27.28
2023-05-23T11:58:22.426Z,27.13
2023-05-23T12:00:49.166Z,27.19
2023-05-23T12:03:16.065Z,27.57
2023-05-23T12:05:44.467Z,27.65
2023-05-23T12:08:13.225Z,27.85
2023-05-23T12:10:49.314Z,27.93
2023-05-23T12:13:16.696Z,27.98
2023-05-23T12:15:43.892Z,27.88
2023-05-23T12:18:10.942Z,27.99
2023-05-23T12:20:37.530Z,27.90
2023-05-23T12:23:05.494Z,28.21
2023-05-23T12:25:42.263Z,28.21
2023-05-23T12:28:12.982Z,28.12
2023-05-23T12:30:43.107Z,28.26
2023-05-23T12:33:11.217Z,28.37
2023-05-23T12:35:42.464Z,28.69
2023-05-23T12:38:09.705Z,28.44
2023-05-23T12:40:36.667Z,28.28
2023-05-23T12:43:03.502Z,28.24
2023-05-23T12:45:32.408Z,28.16
2023-05-23T12:47:59.891Z,28.17
2023-05-23T12:50:26.810Z,28.35
2023-05-23T12:52:53.823Z,28.50
2023-05-23T12:55:20.528Z,28.78
2023-05-23T12:57:47.602Z,28.60
2023-05-23T13:00:14.559Z,28.40
2023-05-23T13:02:41.670Z,28.54
2023-05-23T13:09:59.139Z,28.78
2023-05-23T13:12:25.906Z,28.38
2023-05-23T13:14:52.712Z,28.67
2023-05-23T13:17:19.458Z,29.12
2023-05-23T13:19:46.506Z,29.26
2023-05-23T13:22:13.163Z,29.52
2023-05-23T13:24:40.224Z,29.30
2023-05-23T13:27:07.097Z,29.41
2023-05-23T13:29:33.881Z,29.42
2023-05-23T13:32:00.874Z,29.33
2023-05-23T13:34:28.187Z,29.40
2023-05-23T13:36:56.816Z,29.51
2023-05-23T13:39:24.017Z,29.72
2023-05-23T13:41:51.097Z,29.96
2023-05-23T13:44:18.910Z,29.76
2023-05-23T13:46:45.674Z,29.80
2023-05-23T13:49:13.028Z,29.91
2023-05-23T13:51:39.703Z,29.96
2023-05-23T13:54:06.557Z,29.86
2023-05-23T13:56:34.726Z,29.79
2023-05-23T13:59:01.687Z,29.84
2023-05-23T14:01:28.943Z,30.11
2023-05-23T14:03:55.944Z,30.47
2023-05-23T14:06:22.725Z,30.51
2023-05-23T14:08:49.494Z,30.35
2023-05-23T14:11:16.769Z,30.29
2023-05-23T14:13:43.706Z,30.52
2023-05-23T14:16:10.497Z,30.61
2023-05-23T14:18:37.309Z,30.46
2023-05-23T14:21:04.041Z,30.56
2023-05-23T14:23:31.341Z,30.93
2023-05-23T14:25:58.173Z,31.30
2023-05-23T14:28:24.836Z,31.46
2023-05-23T14:30:51.652Z,31.66
2023-05-23T14:33:19.410Z,31.46
2023-05-23T14:35:48.694Z,31.47
2023-05-23T14:38:18.195Z,31.74
2023-05-23T14:40:48.320Z,32.05
2023-05-23T14:43:19.031Z,31.68
2023-05-23T14:45:48.521Z,31.90
2023-05-23T14:48:17.990Z,31.97
2023-05-23T14:50:46.154Z,31.86
2023-05-23T14:53:16.582Z,32.23
2023-05-23T14:55:45.654Z,32.44
2023-05-23T14:58:14.416Z,32.58
2023-05-23T15:00:46.628Z,32.87
2023-05-23T15:03:15.655Z,32.71
2023-05-23T15:05:48.207Z,33.21
2023-05-23T15:08:18.650Z,33.22
2023-05-23T15:10:48.021Z,33.41
2023-05-23T15:13:18.603Z,33.68
2023-05-23T15:15:48.697Z,33.88
2023-05-23T15:18:27.940Z,33.94
2023-05-23T15:21:05.294Z,34.44
2023-05-23T15:23:34.525Z,34.40
2023-05-23T15:26:03.671Z,34.60
2023-05-23T15:28:34.666Z,34.93
2023-05-23T15:31:03.612Z,35.23
2023-05-23T15:33:32.616Z,35.46
2023-05-23T15:42:19.516Z,35.29
2023-05-23T15:44:46.322Z,35.20
2023-05-23T15:47:12.957Z,35.17
2023-05-23T15:49:39.983Z,35.13
2023-05-23T15:52:06.723Z,35.10
2023-05-23T15:54:33.671Z,35.15
2023-05-23T15:57:01.026Z,35.10
2023-05-23T15:59:27.581Z,35.17
2023-05-23T16:01:54.256Z,35.16
2023-05-23T16:04:22.847Z,35.44
2023-05-23T16:06:50.231Z,35.68
2023-05-23T16:09:17.093Z,35.63
2023-05-23T16:11:44.017Z,35.46
2023-05-23T16:14:10.767Z,35.56
2023-05-23T16:16:37.779Z,35.75
2023-05-23T16:19:04.870Z,35.82
2023-05-23T16:21:32.107Z,35.90
2023-05-23T16:23:58.848Z,36.11
2023-05-23T16:26:26.411Z,36.32
2023-05-23T16:28:53.552Z,36.22
2023-05-23T16:31:28.021Z,36.40
2023-05-23T16:33:55.033Z,37.12
2023-05-23T16:36:22.784Z,37.05
2023-05-23T16:38:49.625Z,37.11
2023-05-23T16:41:16.373Z,37.14
2023-05-23T16:43:43.127Z,37.09
2023-05-23T16:46:10.234Z,36.77
2023-05-23T16:48:37.226Z,36.90
2023-05-23T16:51:04.148Z,36.66
2023-05-23T16:53:30.818Z,36.73
2023-05-23T16:55:59.980Z,36.97
2023-05-23T16:58:26.643Z,37.27
2023-05-23T17:00:56.032Z,37.48
2023-05-23T17:03:23.886Z,37.85
2023-05-23T17:05:50.937Z,38.36
2023-05-23T17:08:17.816Z,38.70
2023-05-23T17:10:44.638Z,38.99
2023-05-23T17:13:11.780Z,39.11
2023-05-23T17:15:38.595Z,39.39
2023-05-23T17:18:05.650Z,39.64
2023-05-23T17:20:33.212Z,40.09
2023-05-23T17:23:00.067Z,40.19
2023-05-23T17:25:27.098Z,40.25
2023-05-23T17:27:55.304Z,40.52
2023-05-23T17:30:22.215Z,40.90
2023-05-23T17:32:49.215Z,40.90
2023-05-23T17:35:15.935Z,41.25
2023-05-23T17:37:44.312Z,41.41
2023-05-23T17:40:11.615Z,41.76
2023-05-23T17:42:39.813Z,42.06
2023-05-23T17:45:08.832Z,42.30
2023-05-23T17:47:35.781Z,42.57
2023-05-23T17:50:04.027Z,42.63
2023-05-23T17:52:32.055Z,42.83
2023-05-23T17:54:58.971Z,43.02
2023-05-23T17:57:29.558Z,43.31
2023-05-23T17:59:57.136Z,43.70
2023-05-23T18:02:24.107Z,44.07
2023-05-23T18:04:51.225Z,44.44
2023-05-23T18:07:18.491Z,44.94
2023-05-23T18:09:46.645Z,45.32
2023-05-23T18:12:14.188Z,45.78
2023-05-23T18:14:41.863Z,46.40
2023-05-23T18:17:09.385Z,46.93
2023-05-23T18:19:38.599Z,47.50
2023-05-23T18:22:07.301Z,47.94
2023-05-23T18:24:34.259Z,48.35
2023-05-23T18:27:02.402Z,48.96
2023-05-23T18:29:29.704Z,49.31
2023-05-23T18:31:56.360Z,49.84
2023-05-23T18:34:23.159Z,50.14
2023-05-23T18:36:50.096Z,50.53
2023-05-23T18:39:18.394Z,50.96
2023-05-23T18:41:46.140Z,51.26
2023-05-23T18:44:18.645Z,51.34
2023-05-23T18:46:47.367Z,51.73
2023-05-23T18:49:14.144Z,51.96
2023-05-23T18:51:44.186Z,52.46
2023-05-23T18:54:11.009Z,52.46
2023-05-23T18:56:37.851Z,52.47
2023-05-23T18:59:04.698Z,52.49
2023-05-23T19:01:31.532Z,52.51
2023-05-23T19:03:58.708Z,52.68
2023-05-23T19:06:27.260Z,53.13
2023-05-23T19:08:53.950Z,53.12
2023-05-23T19:11:21.457Z,53.05
2023-05-23T19:13:48.130Z,53.51
2023-05-23T19:16:16.762Z,53.62
2023-05-23T19:18:43.934Z,53.33
2023-05-23T19:21:10.776Z,53.25
2023-05-23T19:23:37.641Z,53.52
2023-05-23T19:26:04.475Z,53.89
2023-05-23T19:28:31.704Z,53.79
2023-05-23T19:30:58.369Z,53.69
2023-05-23T19:33:25.085Z,53.64
2023-05-23T19:35:52.682Z,53.42
2023-05-23T19:38:20.713Z,53.39
2023-05-23T19:40:47.799Z,53.11
2023-05-23T19:43:14.736Z,53.02
2023-05-23T19:45:41.603Z,52.92
2023-05-23T19:48:08.339Z,53.02
2023-05-23T19:50:35.087Z,53.08
2023-05-23T19:53:01.948Z,53.31
2023-05-23T19:55:29.029Z,53.20
2023-05-23T19:57:55.776Z,53.46
2023-05-23T20:00:22.686Z,53.63
2023-05-23T20:02:50.213Z,53.77
2023-05-23T20:05:17.201Z,53.96
2023-05-23T20:07:44.407Z,54.06
2023-05-23T20:10:11.383Z,54.13
2023-05-23T20:12:38.165Z,54.12
2023-05-23T20:15:05.670Z,54.28
2023-05-23T20:17:32.690Z,54.38
2023-05-23T20:19:59.293Z,54.45
2023-05-23T20:22:26.432Z,54.51
2023-05-23T20:24:53.169Z,54.60
2023-05-23T20:27:20.322Z,54.67
2023-05-23T20:29:47.190Z,54.91
2023-05-23T20:32:13.908Z,55.08
2023-05-23T20:34:41.270Z,55.04
2023-05-23T20:37:08.102Z,55.26
2023-05-23T20:39:37.094Z,55.27
2023-05-23T20:42:05.164Z,55.58
2023-05-23T20:44:32.316Z,55.58
2023-05-23T20:47:00.374Z,55.66
2023-05-23T20:49:27.127Z,55.85
2023-05-23T20:51:53.884Z,56.10
2023-05-23T20:54:20.603Z,56.08
2023-05-23T20:56:47.884Z,56.57
2023-05-23T20:59:15.927Z,56.73
2023-05-23T21:01:42.689Z,57.24
2023-05-23T21:04:09.658Z,57.47
2023-05-23T21:06:37.898Z,57.71
2023-05-23T21:09:04.639Z,57.68
2023-05-23T21:11:33.517Z,58.18
2023-05-23T21:14:00.476Z,58.43
2023-05-23T21:16:31.893Z,58.62
2023-05-23T21:19:00.130Z,58.84
2023-05-23T21:21:27.031Z,59.05
2023-05-23T21:23:53.771Z,59.20
2023-05-23T21:26:20.607Z,59.21
2023-05-23T21:28:48.228Z,59.49
2023-05-23T21:31:16.375Z,59.70
2023-05-23T21:33:46.865Z,60.71
2023-05-23T21:36:13.509Z,61.31
2023-05-23T21:38:40.276Z,61.22
2023-05-23T21:41:07.235Z,60.53
2023-05-23T21:43:34.035Z,60.55
2023-05-23T21:46:00.694Z,60.53
2023-05-23T21:48:27.397Z,60.72
2023-05-23T21:50:54.083Z,61.48
2023-05-23T21:53:22.147Z,61.22
2023-05-23T21:55:49.065Z,61.02
2023-05-23T21:58:15.958Z,61.21
2023-05-23T22:00:45.481Z,61.32
2023-05-23T22:03:12.179Z,61.73
2023-05-23T22:05:40.026Z,61.87
2023-05-23T22:08:07.320Z,61.91
2023-05-23T22:10:37.354Z,61.97
2023-05-23T22:13:04.223Z,62.61
2023-05-23T22:15:31.988Z,62.82
2023-05-23T22:17:59.025Z,63.10
2023-05-23T22:20:27.428Z,62.97
2023-05-23T22:22:54.149Z,63.01
2023-05-23T22:25:22.540Z,63.09
2023-05-23T22:27:49.424Z,63.55
2023-05-23T22:30:16.532Z,64.00
2023-05-23T22:32:43.424Z,63.93
2023-05-23T22:35:10.593Z,64.19
2023-05-23T22:37:37.590Z,64.38
2023-05-23T22:40:05.547Z,64.57
2023-05-23T22:42:32.625Z,64.87
2023-05-23T22:45:01.737Z,65.03
2023-05-23T22:47:28.978Z,65.52
2023-05-23T22:50:00.286Z,65.77
2023-05-23T22:52:27.946Z,66.17
2023-05-23T22:54:54.701Z,66.60
2023-05-23T22:57:21.627Z,67.24
2023-05-23T22:59:48.290Z,67.30
2023-05-23T23:02:15.325Z,67.73
2023-05-23T23:04:43.813Z,67.83
2023-05-23T23:07:10.918Z,68.07
2023-05-23T23:09:38.832Z,68.30
2023-05-23T23:12:05.883Z,68.61
2023-05-23T23:14:32.526Z,68.76
2023-05-23T23:16:59.272Z,68.95
2023-05-23T23:19:29.145Z,68.90
2023-05-23T23:21:56.120Z,69.15
2023-05-23T23:24:22.701Z,69.42
2023-05-23T23:26:49.297Z,69.42
2023-05-23T23:29:15.862Z,69.68
2023-05-23T23:31:42.606Z,69.86
2023-05-23T23:34:09.087Z,70.18
2023-05-23T23:36:39.076Z,70.02
2023-05-23T23:39:05.860Z,70.11
2023-05-23T23:41:32.950Z,70.31
2023-05-23T23:43:59.429Z,70.99
2023-05-23T23:46:26.296Z,71.54
2023-05-23T23:48:55.605Z,71.66
2023-05-23T23:51:22.214Z,71.48
2023-05-23T23:53:50.904Z,71.63
2023-05-23T23:56:19.345Z,72.34
2023-05-23T23:58:45.912Z,72.40
